createdAt,value
2019-05-18T00:01:05.437Z,90.30
2019-05-18T00:03:36.493Z,90.50
2019-05-18T00:06:06.463Z,90.60
2019-05-18T00:08:37.421Z,90.70
2019-05-18T00:11:07.389Z,90.80
2019-05-18T00:13:37.436Z,91.00
2019-05-18T00:16:07.474Z,91.10
2019-05-18T00:18:37.485Z,91.20
2019-05-18T00:21:07.443Z,91.50
2019-05-18T00:23:37.424Z,91.30
2019-05-18T00:26:07.409Z,90.80
2019-05-18T00:28:37.474Z,91.30
2019-05-18T00:31:07.441Z,90.90
2019-05-18T00:33:37.525Z,91.40
2019-05-18T00:36:07.502Z,91.20
2019-05-18T00:38:37.504Z,91.50
2019-05-18T00:41:07.551Z,91.70
2019-05-18T00:43:37.559Z,91.80
2019-05-18T00:46:07.538Z,91.90
2019-05-18T00:48:37.553Z,92.00
2019-05-18T00:51:07.514Z,91.60
2019-05-18T00:53:37.549Z,91.30
2019-05-18T00:56:07.624Z,91.90
2019-05-18T00:58:37.624Z,92.00
2019-05-18T01:01:07.600Z,92.10
2019-05-18T01:03:37.613Z,92.00
2019-05-18T01:06:07.592Z,92.10
2019-05-18T01:08:37.584Z,92.10
2019-05-18T01:11:07.619Z,92.20
2019-05-18T01:13:37.616Z,92.50
2019-05-18T01:16:07.586Z,92.40
2019-05-18T01:18:37.565Z,92.30
2019-05-18T01:21:07.569Z,92.50
2019-05-18T01:23:37.563Z,92.70
2019-05-18T01:26:07.523Z,92.80
2019-05-18T01:28:37.592Z,92.90
2019-05-18T01:31:07.624Z,92.90
2019-05-18T01:33:37.616Z,92.50
2019-05-18T01:36:07.584Z,92.50
2019-05-18T01:38:37.594Z,92.60
2019-05-18T01:41:07.543Z,92.80
2019-05-18T01:43:37.545Z,92.90
2019-05-18T01:46:07.680Z,92.80
2019-05-18T01:48:37.682Z,92.80
2019-05-18T01:51:07.654Z,92.70
2019-05-18T01:53:37.637Z,92.80
2019-05-18T01:56:07.619Z,92.60
2019-05-18T01:58:37.685Z,92.80
2019-05-18T02:01:07.716Z,92.80
2019-05-18T02:03:37.717Z,93.00
2019-05-18T02:06:07.685Z,93.00
2019-05-18T02:08:37.684Z,93.00
2019-05-18T02:11:07.641Z,92.90
2019-05-18T02:13:37.632Z,92.70
2019-05-18T02:16:07.599Z,92.80
2019-05-18T02:18:37.596Z,92.60
2019-05-18T02:21:07.563Z,92.90
2019-05-18T02:23:37.551Z,93.20
2019-05-18T02:26:07.510Z,93.00
2019-05-18T02:28:37.503Z,93.00
2019-05-18T02:31:07.479Z,93.10
2019-05-18T02:33:37.458Z,93.10
2019-05-18T02:36:07.467Z,93.10
2019-05-18T02:38:38.394Z,92.90
2019-05-18T02:41:08.453Z,93.00
2019-05-18T02:43:38.410Z,93.10
2019-05-18T02:46:08.409Z,92.90
2019-05-18T02:48:48.569Z,93.60
2019-05-18T02:51:11.662Z,93.10
2019-05-18T02:53:41.707Z,93.20
2019-05-18T02:56:11.746Z,93.30
2019-05-18T02:58:41.764Z,93.10
2019-05-18T03:01:11.787Z,93.30
2019-05-18T03:03:41.750Z,93.20
2019-05-18T03:06:11.864Z,93.40
2019-05-18T03:08:41.965Z,93.20
2019-05-18T03:11:11.956Z,93.20
2019-05-18T03:13:41.956Z,93.30
2019-05-18T03:16:11.925Z,93.10
2019-05-18T03:18:42.594Z,93.30
2019-05-18T03:21:12.572Z,93.50
2019-05-18T03:23:42.570Z,93.60
2019-05-18T03:26:12.551Z,93.70
2019-05-18T03:28:42.533Z,93.80
2019-05-18T03:31:12.509Z,93.70
2019-05-18T03:33:42.505Z,93.70
2019-05-18T03:36:12.489Z,93.80
2019-05-18T03:38:42.503Z,93.80
2019-05-18T03:41:12.472Z,93.70
2019-05-18T03:43:42.461Z,93.40
2019-05-18T03:46:12.438Z,93.30
2019-05-18T03:48:42.422Z,93.40
2019-05-18T03:51:12.430Z,93.50
2019-05-18T03:53:42.399Z,93.60
2019-05-18T03:56:12.400Z,93.60
2019-05-18T03:58:42.367Z,93.70
2019-05-18T04:01:12.354Z,93.70
2019-05-18T04:03:42.322Z,93.80
2019-05-18T04:06:12.309Z,93.70
2019-05-18T04:08:42.275Z,93.90
2019-05-18T04:11:12.254Z,93.50
2019-05-18T04:13:42.240Z,94.00
2019-05-18T04:16:13.181Z,93.90
2019-05-18T04:18:43.189Z,93.80
2019-05-18T04:21:13.222Z,94.10
2019-05-18T04:23:43.167Z,94.00
2019-05-18T04:26:13.155Z,93.90
2019-05-18T04:28:43.142Z,93.80
2019-05-18T04:31:13.118Z,94.10
2019-05-18T04:33:43.095Z,94.20
2019-05-18T04:36:13.108Z,94.20
2019-05-18T04:38:43.067Z,94.20
2019-05-18T04:41:13.049Z,93.90
2019-05-18T04:43:43.027Z,94.30
2019-05-18T04:46:13.167Z,94.20
2019-05-18T04:48:43.217Z,94.10
2019-05-18T04:51:13.217Z,94.00
2019-05-18T04:53:43.182Z,94.10
2019-05-18T04:56:13.189Z,94.10
2019-05-18T04:58:43.166Z,94.00
2019-05-18T05:01:13.168Z,93.80
2019-05-18T05:03:43.142Z,93.70
2019-05-18T05:06:13.137Z,93.60
2019-05-18T05:08:43.094Z,93.50
2019-05-18T05:11:13.100Z,94.00
2019-05-18T05:13:43.079Z,93.90
2019-05-18T05:16:13.535Z,93.50
2019-05-18T05:18:43.520Z,93.80
2019-05-18T05:21:13.488Z,93.40
2019-05-18T05:23:43.497Z,93.70
2019-05-18T05:26:13.483Z,93.70
2019-05-18T05:28:43.468Z,93.50
2019-05-18T05:31:13.442Z,93.20
2019-05-18T05:33:43.465Z,93.40
2019-05-18T05:36:13.474Z,93.10
2019-05-18T05:38:43.423Z,93.30
2019-05-18T05:41:16.691Z,94.10
2019-05-18T05:43:45.017Z,93.10
2019-05-18T05:46:15.002Z,93.50
2019-05-18T05:48:45.052Z,93.60
2019-05-18T05:51:15.089Z,93.30
2019-05-18T05:53:45.067Z,93.10
2019-05-18T05:56:15.034Z,93.20
2019-05-18T05:58:45.043Z,93.10
2019-05-18T06:01:15.008Z,93.00
2019-05-18T06:03:44.976Z,92.90
2019-05-18T06:06:14.972Z,92.80
2019-05-18T06:08:44.940Z,92.50
2019-05-18T06:11:14.962Z,92.40
2019-05-18T06:13:44.939Z,92.80
2019-05-18T06:16:14.911Z,92.60
2019-05-18T06:18:44.931Z,92.20
2019-05-18T06:21:14.880Z,92.20
2019-05-18T06:23:44.862Z,92.00
2019-05-18T06:26:14.854Z,92.40
2019-05-18T06:28:44.816Z,92.50
2019-05-18T06:31:14.827Z,92.30
2019-05-18T06:33:44.779Z,91.60
2019-05-18T06:36:14.797Z,92.00
2019-05-18T06:38:44.787Z,91.50
2019-05-18T06:41:14.811Z,91.90
2019-05-18T06:43:44.783Z,91.60
2019-05-18T06:46:12.613Z,91.70
2019-05-18T06:48:39.044Z,91.50
2019-05-18T06:51:07.549Z,91.30
2019-05-18T06:53:33.554Z,91.30
2019-05-18T06:56:00.427Z,91.30
2019-05-18T06:58:26.884Z,91.30
2019-05-18T07:00:53.277Z,91.30
2019-05-18T07:03:19.673Z,91.10
2019-05-18T07:05:46.060Z,91.10
2019-05-18T07:08:12.454Z,90.90
2019-05-18T07:10:38.805Z,90.60
2019-05-18T07:13:05.178Z,90.50
2019-05-18T07:15:31.591Z,90.50
2019-05-18T07:17:58.105Z,90.70
2019-05-18T07:20:24.409Z,90.50
2019-05-18T07:22:50.853Z,90.40
2019-05-18T07:25:18.269Z,90.20
2019-05-18T07:27:44.629Z,90.00
2019-05-18T07:30:11.558Z,89.70
2019-05-18T07:32:37.891Z,89.20
2019-05-18T07:35:05.267Z,89.20
2019-05-18T07:37:31.693Z,89.50
2019-05-18T07:39:58.042Z,89.00
2019-05-18T07:42:24.434Z,88.70
2019-05-18T07:44:50.870Z,88.60
2019-05-18T07:47:17.229Z,88.30
2019-05-18T07:49:43.678Z,87.90
2019-05-18T07:52:10.134Z,88.30
2019-05-18T07:54:36.526Z,86.70
2019-05-18T07:57:02.974Z,85.60
2019-05-18T07:59:30.072Z,85.10
2019-05-18T08:01:56.481Z,83.50
2019-05-18T08:04:22.908Z,82.10
2019-05-18T08:06:49.250Z,82.00
2019-05-18T08:09:15.618Z,81.60
2019-05-18T08:11:41.986Z,82.00
2019-05-18T08:14:08.363Z,81.80
2019-05-18T08:16:34.765Z,78.70
2019-05-18T08:19:01.129Z,79.10
2019-05-18T08:21:27.506Z,80.10
2019-05-18T08:23:53.906Z,79.50
2019-05-18T08:26:21.335Z,80.00
2019-05-18T08:28:47.743Z,80.40
2019-05-18T08:31:14.139Z,79.70
2019-05-18T08:33:40.539Z,78.00
2019-05-18T08:36:06.868Z,77.50
2019-05-18T08:38:33.238Z,77.20
2019-05-18T08:40:59.793Z,75.90
2019-05-18T08:43:26.371Z,76.10
2019-05-18T08:45:52.769Z,72.70
2019-05-18T08:48:19.148Z,73.80
2019-05-18T08:50:45.570Z,72.30
2019-05-18T08:53:11.987Z,72.90
2019-05-18T08:55:38.350Z,71.50
2019-05-18T08:58:04.726Z,71.10
2019-05-18T09:00:31.110Z,70.50
2019-05-18T09:02:57.761Z,63.10
2019-05-18T09:05:24.158Z,65.20
2019-05-18T09:07:50.541Z,65.20
2019-05-18T09:10:18.050Z,63.60
2019-05-18T09:12:44.461Z,63.80
2019-05-18T09:15:11.133Z,65.40
2019-05-18T09:17:37.624Z,63.70
2019-05-18T09:20:04.662Z,64.40
2019-05-18T09:22:31.137Z,64.40
2019-05-18T09:24:58.562Z,63.80
2019-05-18T09:27:25.026Z,64.60
2019-05-18T09:29:52.007Z,62.70
2019-05-18T09:32:19.070Z,62.40
2019-05-18T09:34:47.320Z,60.50
2019-05-18T09:37:14.371Z,62.20
2019-05-18T09:39:41.273Z,62.20
2019-05-18T09:42:08.028Z,60.30
2019-05-18T09:44:34.907Z,59.30
2019-05-18T09:47:01.767Z,59.70
2019-05-18T09:49:29.015Z,59.70
2019-05-18T09:51:55.811Z,59.70
2019-05-18T09:54:22.591Z,58.50
2019-05-18T09:56:49.211Z,58.00
2019-05-18T09:59:15.750Z,56.90
2019-05-18T10:01:42.168Z,57.60
2019-05-18T10:04:08.649Z,56.70
2019-05-18T10:06:35.351Z,57.60
2019-05-18T10:09:04.137Z,56.80
2019-05-18T10:11:38.183Z,56.60
2019-05-18T10:14:00.273Z,56.40
2019-05-18T10:16:26.780Z,56.30
2019-05-18T10:18:53.276Z,54.90
2019-05-18T10:21:19.718Z,55.80
2019-05-18T10:23:46.583Z,56.10
2019-05-18T10:26:13.162Z,56.30
2019-05-18T10:28:39.573Z,55.40
2019-05-18T10:31:06.019Z,54.20
2019-05-18T10:33:32.556Z,53.40
2019-05-18T10:35:59.033Z,52.70
2019-05-18T10:38:25.526Z,53.80
2019-05-18T10:40:51.937Z,52.70
2019-05-18T10:43:18.580Z,52.80
2019-05-18T10:45:45.415Z,53.00
2019-05-18T10:48:12.022Z,54.10
2019-05-18T10:50:38.356Z,52.70
2019-05-18T10:53:04.863Z,52.00
2019-05-18T10:55:31.270Z,51.80
2019-05-18T10:57:57.781Z,51.10
2019-05-18T11:00:24.425Z,52.60
2019-05-18T11:02:50.810Z,53.60
2019-05-18T11:05:18.346Z,52.80
2019-05-18T11:07:44.931Z,49.30
2019-05-18T11:10:11.913Z,49.20
2019-05-18T11:12:38.535Z,50.40
2019-05-18T11:15:07.492Z,49.40
2019-05-18T11:17:34.085Z,49.80
2019-05-18T11:20:00.474Z,49.40
2019-05-18T11:22:26.817Z,49.80
2019-05-18T11:24:53.192Z,49.30
2019-05-18T11:27:19.591Z,48.10
2019-05-18T11:29:46.073Z,47.80
2019-05-18T11:32:12.534Z,47.10
2019-05-18T11:34:39.132Z,45.70
2019-05-18T11:37:05.942Z,46.40
2019-05-18T11:39:32.795Z,47.30
2019-05-18T11:41:59.199Z,45.00
2019-05-18T11:44:25.725Z,43.80
2019-05-18T11:46:52.667Z,43.30
2019-05-18T11:49:19.657Z,43.20
2019-05-18T11:51:46.262Z,42.70
2019-05-18T11:54:12.667Z,42.20
2019-05-18T11:56:39.705Z,41.40
2019-05-18T11:59:07.681Z,41.90
2019-05-18T12:01:34.453Z,42.90
2019-05-18T12:18:57.445Z,46.10
2019-05-18T12:21:22.265Z,44.50
2019-05-18T12:23:48.623Z,43.00
2019-05-18T12:26:15.017Z,43.50
2019-05-18T12:28:41.418Z,44.10
2019-05-18T12:31:07.808Z,44.20
2019-05-18T12:33:34.166Z,44.60
2019-05-18T12:36:00.737Z,45.60
2019-05-18T12:38:27.108Z,46.10
2019-05-18T12:40:53.532Z,46.90
2019-05-18T12:43:19.936Z,46.40
2019-05-18T12:45:46.303Z,46.30
2019-05-18T12:48:12.753Z,44.80
2019-05-18T12:50:39.209Z,45.00
2019-05-18T12:53:05.693Z,44.60
2019-05-18T12:55:32.059Z,43.70
2019-05-18T12:58:00.630Z,44.80
2019-05-18T13:00:27.119Z,45.10
2019-05-18T13:02:53.480Z,44.30
2019-05-18T13:05:20.038Z,44.50
2019-05-18T13:07:46.602Z,45.30
2019-05-18T13:10:15.070Z,44.00
2019-05-18T13:12:41.565Z,43.20
2019-05-18T13:15:09.394Z,44.20
2019-05-18T13:17:35.766Z,44.80
2019-05-18T13:20:05.553Z,44.90
2019-05-18T13:22:31.900Z,45.10
2019-05-18T13:24:58.291Z,45.00
2019-05-18T13:27:38.314Z,44.70
2019-05-18T13:29:53.844Z,45.20
2019-05-18T13:32:20.230Z,42.70
2019-05-18T13:34:46.602Z,42.40
2019-05-18T13:37:12.975Z,42.10
2019-05-18T13:39:39.451Z,41.80
2019-05-18T13:42:06.126Z,43.70
2019-05-18T13:44:32.483Z,43.60
2019-05-18T13:46:58.888Z,42.30
2019-05-18T13:49:25.299Z,42.20
2019-05-18T13:51:52.453Z,42.60
2019-05-18T13:54:18.838Z,41.40
2019-05-18T13:56:45.195Z,41.60
2019-05-18T13:59:11.560Z,42.40
2019-05-18T14:01:38.258Z,42.10
2019-05-18T14:04:04.715Z,42.40
2019-05-18T14:06:31.361Z,40.20
2019-05-18T14:08:57.907Z,40.50
2019-05-18T14:11:24.669Z,42.00
2019-05-18T14:13:51.443Z,43.40
2019-05-18T14:16:18.689Z,43.00
2019-05-18T14:18:45.628Z,42.50
2019-05-18T14:21:12.865Z,41.70
2019-05-18T14:23:39.615Z,42.30
2019-05-18T14:26:06.274Z,41.60
2019-05-18T14:28:33.840Z,40.30
2019-05-18T14:31:00.554Z,41.30
2019-05-18T14:33:29.610Z,41.60
2019-05-18T14:35:56.574Z,42.60
2019-05-18T14:38:23.332Z,42.80
2019-05-18T14:40:50.276Z,43.00
2019-05-18T14:43:17.475Z,42.20
2019-05-18T14:45:44.533Z,43.60
2019-05-18T14:48:11.701Z,44.00
2019-05-18T14:50:38.863Z,42.00
2019-05-18T14:53:06.022Z,42.80
2019-05-18T14:55:34.089Z,41.40
2019-05-18T14:58:01.035Z,40.50
2019-05-18T15:00:27.668Z,40.60
2019-05-18T15:02:54.102Z,40.50
2019-05-18T15:05:20.690Z,40.70
2019-05-18T15:07:47.243Z,41.50
2019-05-18T15:10:15.148Z,39.30
2019-05-18T15:12:41.840Z,40.80
2019-05-18T15:15:09.009Z,40.90
2019-05-18T15:17:35.769Z,41.00
2019-05-18T15:20:07.230Z,39.20
2019-05-18T15:22:33.779Z,38.20
2019-05-18T15:25:00.341Z,36.60
2019-05-18T15:27:26.780Z,36.60
2019-05-18T15:29:53.225Z,37.70
2019-05-18T15:32:19.629Z,37.30
2019-05-18T15:34:46.334Z,36.40
2019-05-18T15:37:12.849Z,37.80
2019-05-18T15:39:39.258Z,38.20
2019-05-18T15:42:06.079Z,39.20
2019-05-18T15:44:33.000Z,39.00
2019-05-18T15:46:59.847Z,40.00
2019-05-18T15:49:26.510Z,39.70
2019-05-18T15:51:53.150Z,40.70
2019-05-18T15:54:20.191Z,40.80
2019-05-18T15:56:46.754Z,41.30
2019-05-18T15:59:13.127Z,41.50
2019-05-18T16:01:39.657Z,41.80
2019-05-18T16:04:06.743Z,41.20
2019-05-18T16:06:33.359Z,42.10
2019-05-18T16:08:59.842Z,41.70
2019-05-18T16:11:26.530Z,42.00
2019-05-18T16:13:53.193Z,41.70
2019-05-18T16:16:19.562Z,41.50
2019-05-18T16:18:46.023Z,41.40
2019-05-18T16:21:12.546Z,42.30
2019-05-18T16:23:39.185Z,42.20
2019-05-18T16:26:20.395Z,42.50
2019-05-18T16:28:34.292Z,43.00
2019-05-18T16:31:01.379Z,43.00
2019-05-18T16:33:28.098Z,43.00
2019-05-18T16:35:54.919Z,43.40
2019-05-18T16:38:22.007Z,43.60
2019-05-18T16:40:48.912Z,44.00
2019-05-18T16:43:15.451Z,44.10
2019-05-18T16:45:43.152Z,43.50
2019-05-18T16:48:10.162Z,43.40
2019-05-18T16:50:37.154Z,43.70
2019-05-18T16:53:04.164Z,43.40
2019-05-18T16:55:31.050Z,43.20
2019-05-18T16:57:57.463Z,42.50
2019-05-18T17:00:23.848Z,42.40
2019-05-18T17:02:50.681Z,42.80
2019-05-18T17:05:17.894Z,42.80
2019-05-18T17:07:44.886Z,43.50
2019-05-18T17:10:13.821Z,43.80
2019-05-18T17:12:42.599Z,43.30
2019-05-18T17:15:10.040Z,43.70
2019-05-18T17:17:37.469Z,44.10
2019-05-18T17:20:05.984Z,44.30
2019-05-18T17:22:33.216Z,43.90
2019-05-18T17:24:59.931Z,44.10
2019-05-18T17:27:26.418Z,44.00
2019-05-18T17:29:52.897Z,44.40
2019-05-18T17:32:19.307Z,44.60
2019-05-18T17:34:45.706Z,44.70
2019-05-18T17:37:12.575Z,44.80
2019-05-18T17:39:39.469Z,44.70
2019-05-18T17:42:05.926Z,45.20
2019-05-18T17:44:32.385Z,45.30
2019-05-18T17:46:58.783Z,45.60
2019-05-18T17:49:27.109Z,45.30
2019-05-18T17:51:53.847Z,45.70
2019-05-18T17:54:22.103Z,46.00
2019-05-18T17:56:49.224Z,45.90
2019-05-18T17:59:16.367Z,46.10
2019-05-18T18:01:43.360Z,46.40
2019-05-18T18:04:11.927Z,46.60
2019-05-18T18:06:39.112Z,47.00
2019-05-18T18:09:07.161Z,47.00
2019-05-18T18:11:34.748Z,47.10
2019-05-18T18:14:02.754Z,47.30
2019-05-18T18:16:30.134Z,47.60
2019-05-18T18:18:58.432Z,47.90
2019-05-18T18:21:26.176Z,48.00
2019-05-18T18:23:55.249Z,48.40
2019-05-18T18:26:26.554Z,48.60
2019-05-18T18:28:54.010Z,49.00
2019-05-18T18:31:21.731Z,49.00
2019-05-18T18:33:49.363Z,49.20
2019-05-18T18:36:16.775Z,49.40
2019-05-18T18:38:45.011Z,49.70
2019-05-18T18:41:13.551Z,49.80
2019-05-18T18:43:40.830Z,50.00
2019-05-18T18:46:08.060Z,50.30
2019-05-18T18:48:35.309Z,50.60
2019-05-18T18:51:04.067Z,50.90
2019-05-18T18:53:31.239Z,51.10
2019-05-18T18:55:59.556Z,51.50
2019-05-18T18:58:26.805Z,51.50
2019-05-18T19:00:53.807Z,51.80
2019-05-18T19:03:20.826Z,52.20
2019-05-18T19:05:47.807Z,52.50
2019-05-18T19:08:15.971Z,52.80
2019-05-18T19:10:43.027Z,52.90
2019-05-18T19:13:12.017Z,53.30
2019-05-18T19:15:39.086Z,53.60
2019-05-18T19:18:07.343Z,53.60
2019-05-18T19:20:34.511Z,54.00
2019-05-18T19:23:01.745Z,54.30
2019-05-18T19:25:28.982Z,54.30
2019-05-18T19:27:56.228Z,53.80
2019-05-18T19:30:23.485Z,54.90
2019-05-18T19:32:50.785Z,55.30
2019-05-18T19:35:18.334Z,55.80
2019-05-18T19:37:45.533Z,56.00
2019-05-18T19:40:13.149Z,56.20
2019-05-18T19:42:42.240Z,56.10
2019-05-18T19:45:09.861Z,56.50
2019-05-18T19:47:37.039Z,57.00
2019-05-18T19:50:05.808Z,57.20
2019-05-18T19:52:33.099Z,57.80
2019-05-18T19:55:00.367Z,58.20
2019-05-18T19:57:27.668Z,57.90
2019-05-18T19:59:54.815Z,58.80
2019-05-18T20:02:21.980Z,59.00
2019-05-18T20:05:05.725Z,59.30
2019-05-18T20:07:18.143Z,59.40
2019-05-18T20:09:46.611Z,59.90
2019-05-18T20:12:14.816Z,60.60
2019-05-18T20:14:42.038Z,60.70
2019-05-18T20:17:11.681Z,60.80
2019-05-18T20:19:40.822Z,61.10
2019-05-18T20:22:07.914Z,60.90
2019-05-18T20:24:35.066Z,61.30
2019-05-18T20:27:02.363Z,61.50
2019-05-18T20:29:29.680Z,61.20
2019-05-18T20:31:58.131Z,61.70
2019-05-18T20:34:25.328Z,61.90
2019-05-18T20:36:52.295Z,61.90
2019-05-18T20:39:19.589Z,61.70
2019-05-18T20:41:46.908Z,61.20
2019-05-18T20:44:14.151Z,61.00
2019-05-18T20:46:41.336Z,60.90
2019-05-18T20:49:08.466Z,60.70
2019-05-18T20:51:35.767Z,60.40
2019-05-18T20:54:03.047Z,59.80
2019-05-18T20:56:30.617Z,59.60
2019-05-18T20:58:58.216Z,59.10
2019-05-18T21:01:25.505Z,58.90
2019-05-18T21:03:53.801Z,58.70
2019-05-18T21:06:21.180Z,58.40
2019-05-18T21:08:48.423Z,58.50
2019-05-18T21:11:16.679Z,58.60
2019-05-18T21:13:43.871Z,58.70
2019-05-18T21:16:11.178Z,58.90
2019-05-18T21:18:38.396Z,59.20
2019-05-18T21:21:05.999Z,59.20
2019-05-18T21:23:33.381Z,59.50
2019-05-18T21:26:00.622Z,59.80
2019-05-18T21:28:27.949Z,59.80
